Portada
METAR-TAF:

METAR-TAF

Aeropuertos :

Aeropuerto de Svalbard

Longyearbyen, Noruega

latitud: 78-15N, longitud: 015-28E, altitud: 2 m

Observación

El informe se hizo hace 30 minutos, a las 08:50 UTC
Viento 7 kt del este-sureste
Temperatura -25°C
Humedad 76%
Presión 1002 hPa
Visibilidad: 7000 m
Escasas nubes a una altura de 100 ft
niebla en las proximidades

METAR: ENSB 280850Z 12007KT 9999 7000W VCFG FEW001 M25/M28 Q1002 NOSIG RMK WIND 1400FT 00000KT RMK ARCTIC SEA SMOKE

Hora: 10:20 (09:20 UTC)

Pronóstico

Pronóstico válido del 28 a las 06 UTC al 29 a las 06 UTC
Viento 8 kt del este
Visibilidad 10 km o más
Escasas nubes a una altura de 100 ft
Probabilidad 30% :
Temporalmente
del 28 a las 06 UTC al 29 a las 06 UTC
Visibilidad: 4000 m
niebla en bancos

TAF: ENSB 2806/2906 10008KT 9999 FEW001 PROB30 TEMPO 2806/2906 4000 BCFG

Observaciones y pronósticos meteorológicos de más de 4000 aeropuertos (mensajes METAR y TAF).

Los puntos amarillos y rojos representan las estaciones disponibles.

Ponga el ratón en el punto deseado para ver el nombre de la estación.

Haga clic para ver las observaciones y los pronósticos meteorológicos.

Para cambiar el mapa : haga clic en los botones verdes con una cruz de color negro para hacer un zoom, en el botón verde con un guión para alejar o en las flechas verdes para mapas adyacentes.


METAR-TAF: